Time;durP1;ratioP1;P1;durP2;ratioP2;P2;SDS_P1;SDS_P2;PMS_P1;PMS_P2;Temp;Humidity;BMP_temperature;BMP_pressure;BME280_temperature;BME280_humidity;BME280_pressure;Samples;Min_cycle;Max_cycle;Signal;HPM_P1;HPM_P2
2022/11/13 00:00:37;;;;;;;8.93;6.05;;;2.40;72.90;;;;;;5019869;28;20427;-68
2022/11/13 00:03:02;;;;;;;8.98;6.22;;;2.30;72.90;;;;;;5031008;28;20474;-69
2022/11/13 00:05:28;;;;;;;13.07;8.70;;;2.30;73.60;;;;;;5036845;28;20036;-69
2022/11/13 00:07:56;;;;;;;11.10;7.22;;;2.40;72.00;;;;;;5030460;28;20052;-69
2022/11/13 00:10:22;;;;;;;14.65;9.40;;;2.40;71.20;;;;;;5032904;28;20083;-69
2022/11/13 00:12:48;;;;;;;11.88;7.47;;;2.50;71.60;;;;;;5037490;28;20034;-69
2022/11/13 00:15:13;;;;;;;16.45;9.55;;;2.50;71.50;;;;;;5017509;28;20414;-69
2022/11/13 00:17:39;;;;;;;12.13;7.70;;;2.50;71.60;;;;;;5036475;28;20357;-68
2022/11/13 00:20:05;;;;;;;9.77;7.13;;;2.50;71.00;;;;;;5047088;28;20033;-69
2022/11/13 00:22:34;;;;;;;10.90;7.07;;;2.40;72.40;;;;;;5017857;28;20036;-68
2022/11/13 00:24:59;;;;;;;14.45;9.85;;;2.40;72.20;;;;;;5052827;28;20025;-69
2022/11/13 00:27:25;;;;;;;12.98;9.27;;;2.40;71.60;;;;;;5030713;28;20457;-68
2022/11/13 00:29:50;;;;;;;10.68;7.05;;;2.30;73.00;;;;;;5033941;28;20029;-69
2022/11/13 00:32:16;;;;;;;13.65;9.38;;;2.30;72.50;;;;;;5031057;28;20056;-68
2022/11/13 00:34:42;;;;;;;16.50;10.23;;;2.30;71.60;;;;;;5034840;28;20068;-69
2022/11/13 00:37:07;;;;;;;9.20;6.38;;;2.40;70.30;;;;;;5035913;28;20021;-69
2022/11/13 00:39:33;;;;;;;10.95;7.72;;;2.30;70.90;;;;;;5022578;28;20022;-69
2022/11/13 00:41:59;;;;;;;14.63;9.93;;;2.30;71.10;;;;;;5019264;28;20346;-69
2022/11/13 00:44:24;;;;;;;14.23;9.55;;;2.30;71.20;;;;;;5030144;28;20029;-69
2022/11/13 00:46:50;;;;;;;15.77;11.20;;;2.30;70.20;;;;;;5028105;28;20026;-69
2022/11/13 00:49:16;;;;;;;16.50;10.88;;;2.40;70.30;;;;;;5018973;28;20033;-69
2022/11/13 00:51:42;;;;;;;12.32;8.55;;;2.30;70.30;;;;;;5018879;28;20025;-68
2022/11/13 00:54:08;;;;;;;12.05;8.63;;;2.40;69.10;;;;;;5021173;28;20029;-68
2022/11/13 00:56:33;;;;;;;19.52;11.98;;;2.40;68.90;;;;;;5019411;28;20468;-69
2022/11/13 00:58:59;;;;;;;14.23;10.27;;;2.60;68.70;;;;;;5024340;28;20029;-69
2022/11/13 01:01:24;;;;;;;13.27;9.35;;;2.60;68.80;;;;;;5017551;28;20030;-69
2022/11/13 01:03:50;;;;;;;13.13;8.65;;;2.50;69.40;;;;;;5023624;28;20041;-69
2022/11/13 01:06:19;;;;;;;12.15;8.95;;;2.40;69.30;;;;;;5021876;28;20026;-69
2022/11/13 01:08:49;;;;;;;18.23;11.57;;;2.40;69.00;;;;;;5014513;28;20030;-69
2022/11/13 01:11:17;;;;;;;16.10;10.68;;;2.50;67.90;;;;;;5016464;28;20410;-68
2022/11/13 01:13:45;;;;;;;16.20;9.65;;;2.50;69.50;;;;;;5016155;28;20026;-69
2022/11/13 01:16:15;;;;;;;14.18;9.90;;;2.40;69.30;;;;;;5022566;28;20028;-69
2022/11/13 01:18:41;;;;;;;15.63;9.82;;;2.30;70.20;;;;;;5018333;28;20076;-69
2022/11/13 01:21:19;;;;;;;18.52;12.70;;;2.30;69.20;;;;;;5031298;28;20029;-69
2022/11/13 01:23:45;;;;;;;12.70;9.07;;;2.40;68.30;;;;;;5019881;28;20121;-69
2022/11/13 01:26:20;;;;;;;15.77;10.60;;;2.40;68.50;;;;;;5018946;28;20109;-69
2022/11/13 01:28:46;;;;;;;22.55;14.23;;;2.50;68.10;;;;;;5030792;28;20045;-70
2022/11/13 01:31:17;;;;;;;14.02;9.85;;;2.40;68.70;;;;;;5035216;28;20028;-69
2022/11/13 01:33:45;;;;;;;15.77;10.93;;;2.40;68.20;;;;;;5030889;28;20148;-68
2022/11/13 01:36:16;;;;;;;18.30;12.68;;;2.40;69.20;;;;;;5036612;28;20018;-68
2022/11/13 01:38:42;;;;;;;17.95;12.48;;;2.30;69.50;;;;;;5015778;28;21655;-68
2022/11/13 01:41:17;;;;;;;15.82;10.38;;;2.20;69.50;;;;;;5033284;28;20100;-68
2022/11/13 01:43:42;;;;;;;16.50;11.32;;;2.10;68.70;;;;;;5017480;28;20028;-68
2022/11/13 01:46:16;;;;;;;18.15;13.18;;;2.10;68.50;;;;;;5017671;28;20123;-69
2022/11/13 01:48:49;;;;;;;;;;;2.10;68.00;;;;;;5017841;28;20088;-69
2022/11/13 01:51:31;;;;;;;12.27;8.30;;;2.00;68.50;;;;;;5019326;28;19920;-67
2022/11/13 01:53:58;;;;;;;14.55;9.75;;;1.90;69.10;;;;;;5025790;28;20034;-69
2022/11/13 01:56:28;;;;;;;16.50;11.38;;;1.80;69.40;;;;;;5020266;28;20029;-70
2022/11/13 01:59:20;;;;;;;21.90;11.55;;;1.80;68.10;;;;;;5031176;28;20431;-70
2022/11/13 02:01:46;;;;;;;20.52;13.38;;;1.70;69.40;;;;;;5017950;28;20030;-69
2022/11/13 02:04:14;;;;;;;13.30;8.90;;;1.60;69.80;;;;;;5018000;28;20025;-69
2022/11/13 02:06:59;;;;;;;17.25;10.98;;;1.40;70.80;;;;;;5000302;28;20323;-69
2022/11/13 02:09:46;;;;;;;20.10;13.18;;;1.30;69.20;;;;;;5030356;28;20029;-69
2022/11/13 02:12:14;;;;;;;30.25;17.17;;;1.30;68.60;;;;;;5018854;28;20025;-69
2022/11/13 02:14:44;;;;;;;15.73;10.93;;;1.30;68.90;;;;;;5045438;28;20061;-69
2022/11/13 02:17:14;;;;;;;15.25;9.88;;;1.30;68.30;;;;;;5029856;28;20022;-68
2022/11/13 02:19:44;;;;;;;17.60;11.68;;;1.30;68.10;;;;;;5027471;28;20025;-67
2022/11/13 02:22:18;;;;;;;20.80;13.82;;;1.30;68.30;;;;;;5027375;28;20454;-69
2022/11/13 02:24:45;;;;;;;15.10;9.85;;;1.30;68.10;;;;;;5023457;28;20071;-68
2022/11/13 02:27:35;;;;;;;24.55;14.30;;;1.30;68.50;;;;;;5028859;28;20073;-68
2022/11/13 02:30:31;;;;;;;24.70;14.95;;;1.20;69.10;;;;;;5022236;28;20041;-68
2022/11/13 02:33:00;;;;;;;17.50;11.48;;;1.20;68.30;;;;;;5014442;28;20557;-69
2022/11/13 02:35:31;;;;;;;13.82;9.30;;;1.10;68.90;;;;;;5017922;28;20044;-68
2022/11/13 02:37:59;;;;;;;14.63;10.27;;;1.00;69.10;;;;;;5030459;28;20314;-69
2022/11/13 02:40:25;;;;;;;20.65;14.00;;;0.90;69.10;;;;;;5029602;28;21038;-69
2022/11/13 02:42:51;;;;;;;19.40;13.02;;;1.00;67.70;;;;;;5016169;28;20030;-69
2022/11/13 02:45:17;;;;;;;16.77;10.48;;;1.00;68.10;;;;;;5016489;28;20022;-69
2022/11/13 02:47:43;;;;;;;15.88;10.93;;;1.10;67.20;;;;;;5030260;28;20052;-69
2022/11/13 02:50:09;;;;;;;20.35;13.30;;;1.10;67.50;;;;;;5020422;28;20053;-69
2022/11/13 02:52:35;;;;;;;14.50;10.45;;;1.10;68.40;;;;;;5033648;28;20018;-68
2022/11/13 02:55:01;;;;;;;23.83;13.95;;;1.10;67.70;;;;;;5034528;28;20103;-69
2022/11/13 02:57:27;;;;;;;14.57;10.50;;;1.00;68.40;;;;;;5032886;28;20022;-69
2022/11/13 02:59:52;;;;;;;14.52;9.55;;;0.90;68.80;;;;;;5025164;28;20037;-69
2022/11/13 03:02:18;;;;;;;15.60;10.38;;;0.70;69.10;;;;;;5034377;28;20025;-69
2022/11/13 03:04:45;;;;;;;20.40;14.20;;;0.70;67.80;;;;;;5032839;28;20072;-68
2022/11/13 03:07:12;;;;;;;17.30;11.45;;;0.70;68.00;;;;;;5034791;28;20766;-69
2022/11/13 03:09:38;;;;;;;20.90;12.63;;;0.80;67.30;;;;;;5017872;28;20037;-68
2022/11/13 03:12:05;;;;;;;16.27;11.52;;;0.90;66.80;;;;;;5016194;28;20033;-68
2022/11/13 03:14:31;;;;;;;18.85;13.77;;;1.00;66.90;;;;;;5022744;28;20408;-69
2022/11/13 03:16:57;;;;;;;31.23;19.40;;;1.20;66.60;;;;;;5024007;28;20033;-69
2022/11/13 03:19:22;;;;;;;25.88;16.73;;;1.40;66.50;;;;;;5016338;28;20041;-69
2022/11/13 03:21:48;;;;;;;28.15;18.70;;;1.30;67.50;;;;;;5019732;28;20024;-68
2022/11/13 03:24:13;;;;;;;23.02;15.65;;;1.30;67.20;;;;;;5024412;28;20039;-69
2022/11/13 03:26:39;;;;;;;27.73;18.67;;;1.30;66.90;;;;;;5014516;28;20033;-69
2022/11/13 03:29:05;;;;;;;24.98;16.33;;;1.40;66.90;;;;;;5024873;28;20029;-68
2022/11/13 03:31:30;;;;;;;21.27;15.32;;;1.30;67.30;;;;;;5022388;28;20411;-69
2022/11/13 03:33:56;;;;;;;16.88;12.75;;;1.30;67.20;;;;;;5030526;28;20030;-69
2022/11/13 03:36:22;;;;;;;16.27;11.77;;;1.30;67.10;;;;;;5037569;28;20422;-69
2022/11/13 03:38:47;;;;;;;20.17;14.00;;;1.20;67.30;;;;;;5025506;28;20406;-69
2022/11/13 03:41:16;;;;;;;25.70;17.00;;;1.30;66.60;;;;;;5031935;28;20052;-69
2022/11/13 03:43:41;;;;;;;23.83;15.95;;;1.40;66.70;;;;;;5029473;28;20307;-68
2022/11/13 03:46:07;;;;;;;28.65;18.05;;;1.30;67.30;;;;;;5017289;28;20040;-69
2022/11/13 03:48:36;;;;;;;36.65;21.92;;;1.20;67.40;;;;;;5020794;28;20032;-69
2022/11/13 03:51:02;;;;;;;25.50;17.60;;;1.00;68.40;;;;;;5031536;28;20036;-69
2022/11/13 03:53:28;;;;;;;17.40;12.80;;;1.00;67.40;;;;;;5016792;28;20033;-69
2022/11/13 03:55:53;;;;;;;18.98;13.27;;;1.10;66.70;;;;;;5012967;28;20030;-69
2022/11/13 03:58:19;;;;;;;22.33;15.55;;;1.20;66.70;;;;;;5000554;28;21582;-69
2022/11/13 04:00:46;;;;;;;30.77;19.17;;;1.10;67.40;;;;;;5001001;28;20504;-69
2022/11/13 04:03:12;;;;;;;23.13;15.23;;;1.00;67.60;;;;;;5000965;28;20083;-69
2022/11/13 04:05:38;;;;;;;27.35;18.60;;;0.90;67.70;;;;;;5008204;28;20030;-69
2022/11/13 04:08:04;;;;;;;23.27;15.63;;;0.90;67.40;;;;;;5015517;28;20038;-69
2022/11/13 04:10:30;;;;;;;24.67;17.23;;;0.80;67.80;;;;;;5029599;28;20034;-69
2022/11/13 04:13:01;;;;;;;27.25;18.17;;;0.70;68.30;;;;;;5014840;28;20044;-69
2022/11/13 04:15:32;;;;;;;31.80;20.98;;;0.70;67.60;;;;;;5019454;28;20656;-68
2022/11/13 04:17:58;;;;;;;26.35;17.73;;;0.60;67.70;;;;;;5003151;28;20064;-69
2022/11/13 04:20:27;;;;;;;18.33;12.27;;;0.50;67.90;;;;;;5015087;28;20057;-68
2022/11/13 04:22:54;;;;;;;18.25;12.35;;;0.50;67.30;;;;;;5016849;28;20418;-69
2022/11/13 04:25:20;;;;;;;17.25;12.52;;;0.50;67.60;;;;;;5021724;28;20113;-69
2022/11/13 04:27:47;;;;;;;20.52;14.65;;;0.40;67.50;;;;;;5012224;28;20140;-68
2022/11/13 04:30:13;;;;;;;56.55;27.60;;;0.40;67.50;;;;;;5027821;28;20032;-68
2022/11/13 04:32:39;;;;;;;48.70;16.38;;;0.30;68.40;;;;;;5020469;28;20026;-68
2022/11/13 04:35:05;;;;;;;153.02;24.75;;;0.30;67.70;;;;;;5017526;28;20049;-68
2022/11/13 04:37:31;;;;;;;66.93;18.98;;;0.20;68.00;;;;;;5015525;28;20061;-68
2022/11/13 04:39:57;;;;;;;18.02;11.27;;;0.10;68.50;;;;;;5030107;28;20032;-70
2022/11/13 04:45:07;;;;;;;20.55;13.82;;;-0.20;68.90;;;;;;5014848;28;20085;-69
2022/11/13 04:47:33;;;;;;;30.88;16.48;;;-0.30;68.50;;;;;;5007546;28;20323;-69
2022/11/13 04:49:58;;;;;;;19.88;13.57;;;-0.40;68.50;;;;;;5011584;28;20056;-69
2022/11/13 04:52:24;;;;;;;34.30;19.98;;;-0.40;67.60;;;;;;5031969;28;20425;-69
2022/11/13 04:54:50;;;;;;;37.15;21.85;;;-0.40;67.60;;;;;;5050243;28;20120;-69
2022/11/13 04:57:15;;;;;;;36.40;17.80;;;-0.50;68.30;;;;;;5037576;28;20029;-68
2022/11/13 04:59:41;;;;;;;44.53;21.83;;;-0.60;68.60;;;;;;5038549;28;20105;-68
2022/11/13 05:02:06;;;;;;;21.42;13.38;;;-0.70;68.20;;;;;;5020482;28;20030;-68
2022/11/13 05:04:32;;;;;;;22.77;14.77;;;-0.70;68.30;;;;;;5019319;28;20038;-69
2022/11/13 05:06:58;;;;;;;27.55;17.98;;;-0.80;67.70;;;;;;5019262;28;20036;-68
2022/11/13 05:09:26;;;;;;;115.15;23.40;;;-0.80;68.00;;;;;;5035788;28;20096;-68
2022/11/13 05:11:52;;;;;;;15.98;11.70;;;-0.80;68.00;;;;;;5021249;28;20327;-68
2022/11/13 05:14:18;;;;;;;17.35;12.43;;;-0.80;67.70;;;;;;5036075;28;20044;-68
2022/11/13 05:16:43;;;;;;;19.70;13.18;;;-0.80;67.40;;;;;;5036241;28;20052;-68
2022/11/13 05:19:09;;;;;;;17.27;12.20;;;-0.70;67.40;;;;;;5036122;28;20418;-68
2022/11/13 05:21:36;;;;;;;23.33;15.52;;;-0.50;66.80;;;;;;5020743;28;20032;-68
2022/11/13 05:24:02;;;;;;;22.45;15.80;;;-0.40;67.00;;;;;;5034308;28;20033;-68
2022/11/13 05:26:28;;;;;;;17.75;12.65;;;-0.30;66.90;;;;;;5034899;28;20330;-68
2022/11/13 05:28:58;;;;;;;23.13;16.42;;;-0.20;66.90;;;;;;5024498;28;20057;-68
2022/11/13 05:31:24;;;;;;;15.13;11.05;;;-0.20;66.80;;;;;;5028021;28;20124;-68
2022/11/13 05:33:50;;;;;;;16.02;12.23;;;-0.10;66.90;;;;;;5026270;28;20037;-67
2022/11/13 05:36:17;;;;;;;29.88;17.95;;;-0.20;67.00;;;;;;5017778;28;20030;-68
2022/11/13 05:38:43;;;;;;;26.33;17.27;;;-0.20;67.30;;;;;;5007935;28;20030;-67
2022/11/13 05:41:12;;;;;;;15.90;11.60;;;-0.30;67.60;;;;;;5032268;28;20032;-68
2022/11/13 05:43:39;;;;;;;16.65;12.50;;;-0.30;67.10;;;;;;5027097;28;20030;-67
2022/11/13 05:46:09;;;;;;;22.77;15.10;;;-0.30;67.00;;;;;;5036138;28;20017;-67
2022/11/13 05:48:35;;;;;;;15.68;11.40;;;-0.30;67.30;;;;;;5028140;28;20452;-67
2022/11/13 05:51:01;;;;;;;20.30;14.07;;;-0.40;67.30;;;;;;5020621;28;20037;-67
2022/11/13 05:53:28;;;;;;;22.38;14.27;;;-0.40;67.20;;;;;;5014095;28;20045;-68
2022/11/13 05:55:53;;;;;;;30.40;17.48;;;-0.30;67.00;;;;;;5017414;28;20289;-67
2022/11/13 05:58:19;;;;;;;22.25;14.75;;;-0.30;67.30;;;;;;5029651;28;20411;-67
2022/11/13 06:00:45;;;;;;;14.88;10.82;;;-0.40;67.20;;;;;;5026380;28;20031;-67
2022/11/13 06:03:10;;;;;;;21.75;14.18;;;-0.40;67.30;;;;;;5029563;28;20025;-67
2022/11/13 06:05:36;;;;;;;17.45;12.60;;;-0.40;67.30;;;;;;5024960;28;20322;-67
2022/11/13 06:08:02;;;;;;;21.10;14.02;;;-0.40;67.40;;;;;;5011174;28;20113;-67
2022/11/13 06:10:27;;;;;;;22.45;15.02;;;-0.50;67.60;;;;;;5025850;28;20056;-67
2022/11/13 06:12:56;;;;;;;22.33;14.98;;;-0.50;67.40;;;;;;5031399;28;20030;-67
2022/11/13 06:15:21;;;;;;;20.55;14.52;;;-0.60;67.80;;;;;;5032349;28;20100;-68
2022/11/13 06:17:47;;;;;;;23.27;16.02;;;-0.60;67.50;;;;;;5025904;28;20747;-67
2022/11/13 06:20:14;;;;;;;21.48;15.23;;;-0.70;68.00;;;;;;5021283;28;20046;-67
2022/11/13 06:22:40;;;;;;;17.02;12.48;;;-0.70;67.70;;;;;;5020405;28;20021;-67
2022/11/13 06:25:08;;;;;;;13.98;10.27;;;-0.70;67.10;;;;;;5024080;28;20025;-67
2022/11/13 06:27:36;;;;;;;15.70;11.30;;;-0.50;66.80;;;;;;5022203;28;20380;-68
2022/11/13 06:30:02;;;;;;;22.08;13.18;;;-0.40;66.90;;;;;;5018325;28;20430;-67
2022/11/13 06:32:28;;;;;;;16.95;11.60;;;-0.30;67.10;;;;;;5032250;28;20446;-67
2022/11/13 06:34:54;;;;;;;22.02;13.65;;;-0.30;67.10;;;;;;5030971;28;20033;-68
2022/11/13 06:37:19;;;;;;;14.48;10.55;;;-0.20;66.90;;;;;;5037988;28;20025;-67
2022/11/13 06:39:45;;;;;;;13.73;8.18;;;-0.20;66.90;;;;;;5033252;28;20068;-67
2022/11/13 06:42:10;;;;;;;16.08;10.82;;;-0.10;66.80;;;;;;5016204;28;20361;-67
2022/11/13 06:44:36;;;;;;;15.88;10.27;;;0.00;66.80;;;;;;5031827;28;20033;-67
2022/11/13 06:47:01;;;;;;;17.13;11.10;;;0.00;66.80;;;;;;5023906;28;20029;-67
2022/11/13 06:49:27;;;;;;;14.68;9.88;;;0.10;66.90;;;;;;5017439;28;20030;-67
2022/11/13 06:51:53;;;;;;;14.13;9.13;;;0.10;66.70;;;;;;5026419;28;20037;-67
2022/11/13 06:54:18;;;;;;;13.90;9.63;;;0.20;66.40;;;;;;5019021;28;20048;-67
2022/11/13 06:56:44;;;;;;;14.15;9.93;;;0.30;66.70;;;;;;5024814;28;20087;-67
2022/11/13 06:59:10;;;;;;;14.45;8.73;;;0.30;66.70;;;;;;5039098;28;20075;-67
2022/11/13 07:01:36;;;;;;;16.42;9.70;;;0.40;66.60;;;;;;5032915;28;20083;-67
2022/11/13 07:04:03;;;;;;;15.75;10.25;;;0.50;66.40;;;;;;5034354;28;20038;-67
2022/11/13 07:06:29;;;;;;;21.88;12.90;;;0.70;66.30;;;;;;5024542;28;20061;-67
2022/11/13 07:08:54;;;;;;;15.10;10.55;;;0.60;66.80;;;;;;5025889;28;20080;-67
2022/11/13 07:11:22;;;;;;;17.90;11.55;;;0.70;66.50;;;;;;5029767;28;20025;-66
2022/11/13 07:13:48;;;;;;;21.00;13.20;;;0.70;66.50;;;;;;5028162;28;20034;-67
2022/11/13 07:16:17;;;;;;;17.70;11.30;;;0.60;67.30;;;;;;5030901;28;20025;-67
2022/11/13 07:18:43;;;;;;;22.23;14.15;;;0.60;66.90;;;;;;5029936;28;20169;-66
2022/11/13 07:21:13;;;;;;;18.92;12.30;;;0.60;67.10;;;;;;5026387;28;20119;-66
2022/11/13 07:23:42;;;;;;;18.58;12.30;;;0.70;66.50;;;;;;5028105;28;20109;-67
2022/11/13 07:26:11;;;;;;;15.80;10.57;;;0.70;66.50;;;;;;5046360;28;20073;-66
2022/11/13 07:28:37;;;;;;;22.70;15.18;;;0.80;66.30;;;;;;5027205;28;20041;-66
2022/11/13 07:31:03;;;;;;;21.50;14.95;;;0.90;66.30;;;;;;5022739;28;20065;-66
2022/11/13 07:33:29;;;;;;;20.77;13.43;;;1.00;66.80;;;;;;5018322;28;20044;-66
2022/11/13 07:35:57;;;;;;;29.33;18.98;;;1.00;66.90;;;;;;5022326;28;20017;-68
2022/11/13 07:38:23;;;;;;;25.33;17.63;;;1.10;66.90;;;;;;5021815;28;20103;-68
2022/11/13 07:40:49;;;;;;;23.42;16.48;;;1.10;67.20;;;;;;5032618;28;20599;-66
2022/11/13 07:43:15;;;;;;;19.33;14.30;;;1.30;66.50;;;;;;5017474;28;20032;-67
2022/11/13 07:45:41;;;;;;;23.25;16.77;;;1.40;66.80;;;;;;5032687;28;20033;-67
2022/11/13 07:48:06;;;;;;;26.80;18.58;;;1.60;66.50;;;;;;5017151;28;20037;-67
2022/11/13 07:50:34;;;;;;;33.45;23.45;;;1.70;66.60;;;;;;5032401;28;20024;-67
2022/11/13 07:53:02;;;;;;;25.88;18.30;;;1.80;66.70;;;;;;5017948;28;20034;-67
2022/11/13 07:55:28;;;;;;;35.25;24.20;;;2.00;66.50;;;;;;5027605;28;20022;-67
2022/11/13 07:57:58;;;;;;;58.17;37.15;;;2.10;66.80;;;;;;5027455;28;20071;-68
2022/11/13 08:00:27;;;;;;;45.08;30.83;;;2.30;66.60;;;;;;5021518;28;20053;-67
2022/11/13 08:02:54;;;;;;;26.20;18.80;;;2.30;66.70;;;;;;5020195;28;20108;-68
2022/11/13 08:05:19;;;;;;;24.15;17.83;;;2.40;67.10;;;;;;5024851;28;20321;-67
2022/11/13 08:07:47;;;;;;;24.88;16.80;;;2.50;66.80;;;;;;5020020;28;20029;-67
2022/11/13 08:10:13;;;;;;;17.20;12.40;;;2.80;66.20;;;;;;5000888;28;20025;-67
2022/11/13 08:12:38;;;;;;;20.20;13.02;;;3.00;66.10;;;;;;5018411;28;20029;-67
2022/11/13 08:15:05;;;;;;;29.73;25.65;;;3.20;66.10;;;;;;5033339;28;20033;-67
2022/11/13 08:17:30;;;;;;;32.70;25.23;;;3.40;65.40;;;;;;5028575;28;20029;-67
2022/11/13 08:19:56;;;;;;;26.58;19.73;;;4.10;65.80;;;;;;5029889;28;20055;-67
2022/11/13 08:22:21;;;;;;;16.85;11.82;;;4.90;67.90;;;;;;5029533;28;20354;-67
2022/11/13 08:24:52;;;;;;;15.32;12.27;;;5.60;69.60;;;;;;5027640;28;20037;-67
2022/11/13 08:27:19;;;;;;;17.98;12.63;;;6.10;70.10;;;;;;5019279;28;20489;-67
2022/11/13 08:29:45;;;;;;;17.88;13.20;;;6.90;70.00;;;;;;5034206;28;20072;-67
2022/11/13 08:32:14;;;;;;;19.50;14.82;;;7.80;67.40;;;;;;5032668;28;20410;-67
2022/11/13 08:34:40;;;;;;;14.15;11.02;;;8.80;69.20;;;;;;5027644;28;20033;-67
2022/11/13 08:37:05;;;;;;;12.73;10.23;;;8.90;98.00;;;;;;5028995;28;20398;-67
2022/11/13 08:39:34;;;;;;;12.32;10.63;;;7.90;98.00;;;;;;5032113;28;20025;-67
2022/11/13 08:41:59;;;;;;;13.57;11.20;;;7.50;98.00;;;;;;5029976;28;20030;-67
2022/11/13 08:44:25;;;;;;;12.98;10.18;;;7.80;98.00;;;;;;5030441;28;20121;-68
2022/11/13 08:46:51;;;;;;;14.35;11.88;;;7.80;97.70;;;;;;5021081;28;20029;-69
2022/11/13 08:49:16;;;;;;;17.20;13.00;;;7.20;97.80;;;;;;5019523;28;20087;-67
2022/11/13 08:51:42;;;;;;;17.27;13.30;;;7.20;98.00;;;;;;5028431;28;20060;-68
2022/11/13 08:54:10;;;;;;;17.92;12.65;;;6.90;98.00;;;;;;5030123;28;20119;-68
2022/11/13 08:56:36;;;;;;;16.50;12.30;;;6.90;98.00;;;;;;5029783;28;20147;-68
2022/11/13 08:59:02;;;;;;;18.75;13.35;;;7.60;98.00;;;;;;5018239;28;20123;-68
2022/11/13 09:01:27;;;;;;;18.33;12.63;;;7.40;97.20;;;;;;5033375;28;20426;-68
2022/11/13 09:03:53;;;;;;;16.48;11.25;;;7.60;96.80;;;;;;5016384;28;20091;-67
2022/11/13 09:06:19;;;;;;;17.75;11.35;;;7.40;97.80;;;;;;5033570;28;20117;-67
2022/11/13 09:08:44;;;;;;;15.60;11.48;;;6.90;98.00;;;;;;5026100;28;20152;-68
2022/11/13 09:11:12;;;;;;;14.93;12.02;;;7.00;97.90;;;;;;5027697;28;20084;-68
2022/11/13 09:13:38;;;;;;;14.68;11.75;;;7.10;98.00;;;;;;5035478;28;20035;-68
2022/11/13 09:16:04;;;;;;;16.95;12.48;;;7.30;97.90;;;;;;5028168;28;20029;-69
2022/11/13 09:18:44;;;;;;;22.13;16.42;;;7.70;98.00;;;;;;5018468;28;20186;-68
2022/11/13 09:21:19;;;;;;;37.45;22.00;;;7.80;96.70;;;;;;5034655;28;20029;-67
2022/11/13 09:23:53;;;;;;;35.80;18.05;;;7.10;96.40;;;;;;5032427;28;20375;-67
2022/11/13 09:26:24;;;;;;;34.33;17.08;;;6.40;97.70;;;;;;5030222;28;20028;-67
2022/11/13 09:28:56;;;;;;;35.95;17.85;;;6.10;98.00;;;;;;5030164;28;20099;-67
2022/11/13 09:31:23;;;;;;;19.42;14.98;;;5.80;98.00;;;;;;5033624;28;20036;-68
2022/11/13 09:33:52;;;;;;;30.95;13.23;;;5.60;98.00;;;;;;5038567;28;20055;-68
2022/11/13 09:36:18;;;;;;;17.70;13.15;;;5.70;98.00;;;;;;5034194;28;20029;-68
2022/11/13 09:38:45;;;;;;;15.35;11.77;;;5.90;98.00;;;;;;5034200;28;20040;-69
2022/11/13 09:41:17;;;;;;;12.90;10.25;;;6.10;98.00;;;;;;5011708;28;20068;-68
2022/11/13 09:43:52;;;;;;;14.18;10.20;;;6.40;98.00;;;;;;4999305;28;20038;-69
2022/11/13 09:46:37;;;;;;;11.98;8.63;;;7.80;98.00;;;;;;5029433;28;20033;-69
2022/11/13 09:49:12;;;;;;;12.40;9.93;;;9.00;98.00;;;;;;5033580;28;20030;-70
2022/11/13 09:51:38;;;;;;;18.02;13.75;;;9.70;93.50;;;;;;5029249;28;20033;-69
2022/11/13 09:54:13;;;;;;;20.02;15.20;;;10.20;92.10;;;;;;5033082;28;20654;-69
2022/11/13 09:56:58;;;;;;;12.68;10.38;;;10.10;89.60;;;;;;5017853;28;20033;-69
2022/11/13 09:59:41;;;;;;;10.93;8.82;;;9.90;90.70;;;;;;5034160;28;20021;-69
2022/11/13 10:02:07;;;;;;;11.98;9.13;;;9.20;91.80;;;;;;5032709;28;20029;-69
2022/11/13 10:04:44;;;;;;;13.55;10.32;;;9.00;92.10;;;;;;5029698;28;20430;-69
2022/11/13 10:07:26;;;;;;;12.10;9.48;;;8.70;93.00;;;;;;5040035;28;20221;-69
2022/11/13 10:10:12;;;;;;;11.55;9.50;;;8.70;92.60;;;;;;5035460;28;20033;-69
2022/11/13 10:12:38;;;;;;;13.10;9.93;;;9.00;93.00;;;;;;5034221;28;20055;-68
2022/11/13 10:15:05;;;;;;;12.07;9.45;;;9.20;93.00;;;;;;5014673;28;20068;-68
2022/11/13 10:17:37;;;;;;;12.15;9.50;;;9.10;91.90;;;;;;5025298;28;20026;-68
2022/11/13 10:20:06;;;;;;;12.90;9.88;;;9.50;92.10;;;;;;5026719;28;20113;-68
2022/11/13 10:22:38;;;;;;;12.65;10.65;;;9.30;91.40;;;;;;5017555;28;20091;-68
2022/11/13 10:25:16;;;;;;;13.30;10.68;;;9.20;92.70;;;;;;5010978;28;20033;-68
2022/11/13 10:27:49;;;;;;;12.20;10.18;;;9.40;93.20;;;;;;5021701;28;20080;-68
2022/11/13 10:30:16;;;;;;;12.82;10.05;;;9.70;92.30;;;;;;5022952;28;20026;-70
2022/11/13 10:32:43;;;;;;;13.30;10.65;;;9.60;91.00;;;;;;5029635;28;20405;-70
2022/11/13 10:35:41;;;;;;;13.05;10.50;;;9.50;90.80;;;;;;5031273;28;20040;-69
2022/11/13 10:38:25;;;;;;;18.23;14.02;;;9.60;90.80;;;;;;5013666;28;20056;-69
2022/11/13 10:41:02;;;;;;;12.80;10.55;;;9.30;91.80;;;;;;5023458;28;20037;-69
2022/11/13 10:43:28;;;;;;;13.15;9.75;;;9.70;91.90;;;;;;5025296;28;20037;-70
2022/11/13 10:46:02;;;;;;;14.00;11.48;;;9.90;90.40;;;;;;5022710;28;20100;-68
2022/11/13 10:48:37;;;;;;;14.27;11.30;;;9.40;92.00;;;;;;5009544;28;20092;-71
2022/11/13 10:51:17;;;;;;;16.30;11.95;;;9.40;93.00;;;;;;5024430;28;20033;-68
2022/11/13 10:53:46;;;;;;;14.88;11.88;;;9.60;93.20;;;;;;5030759;28;20033;-68
2022/11/13 10:56:31;;;;;;;15.48;12.68;;;9.80;93.30;;;;;;5015831;28;20088;-68
2022/11/13 10:59:10;;;;;;;15.27;12.27;;;10.20;92.10;;;;;;5032076;28;20033;-68
2022/11/13 11:01:36;;;;;;;13.95;11.07;;;10.30;92.20;;;;;;5018757;28;20044;-69
2022/11/13 11:04:28;;;;;;;15.48;12.13;;;10.60;91.90;;;;;;5000816;28;20347;-67
2022/11/13 11:07:05;;;;;;;14.85;11.32;;;10.60;90.80;;;;;;5018741;28;20049;-68
2022/11/13 11:09:31;;;;;;;16.38;11.57;;;10.80;91.20;;;;;;5024708;28;20168;-69
2022/11/13 11:12:15;;;;;;;15.27;12.02;;;11.00;89.70;;;;;;5026359;28;20029;-69
2022/11/13 11:14:57;;;;;;;13.75;10.02;;;10.80;91.20;;;;;;5013116;28;20128;-70
2022/11/13 11:17:36;;;;;;;11.05;8.45;;;11.00;90.20;;;;;;5036971;28;20068;-69
2022/11/13 11:20:12;;;;;;;12.70;8.85;;;10.70;90.80;;;;;;5030361;28;20029;-69
2022/11/13 11:22:40;;;;;;;16.67;11.15;;;10.80;90.30;;;;;;5016229;28;20033;-69
2022/11/13 11:25:12;;;;;;;13.40;9.63;;;10.90;91.00;;;;;;5027508;28;20426;-68
2022/11/13 11:27:49;;;;;;;12.57;8.68;;;10.80;90.90;;;;;;5017400;28;20133;-68
2022/11/13 11:30:20;;;;;;;12.57;8.95;;;10.70;90.30;;;;;;5010224;28;20327;-68
2022/11/13 11:33:04;;;;;;;12.95;9.95;;;10.70;90.20;;;;;;5013343;28;20044;-69
2022/11/13 11:35:50;;;;;;;;;;;10.60;90.40;;;;;;5031157;28;20030;-68
2022/11/13 11:38:29;;;;;;;10.38;7.43;;;10.80;90.80;;;;;;5022599;28;19915;-69
2022/11/13 11:41:12;;;;;;;11.65;8.02;;;10.80;89.20;;;;;;5027496;28;20036;-68
2022/11/13 11:43:44;;;;;;;13.30;9.00;;;10.90;88.20;;;;;;5034871;28;20022;-69
2022/11/13 11:46:18;;;;;;;11.85;8.60;;;10.70;88.80;;;;;;5006371;28;20037;-69
2022/11/13 11:48:44;;;;;;;13.27;9.38;;;10.60;88.00;;;;;;5015600;28;20368;-67
2022/11/13 11:51:13;;;;;;;11.23;8.88;;;10.80;88.30;;;;;;5034306;28;20029;-69
2022/11/13 11:53:54;;;;;;;12.82;9.07;;;10.90;87.50;;;;;;5033171;28;20414;-68
2022/11/13 11:56:43;;;;;;;12.52;9.10;;;10.70;88.20;;;;;;5029350;28;20025;-68
2022/11/13 11:59:38;;;;;;;10.98;8.90;;;10.60;88.40;;;;;;5034299;28;20457;-69
2022/11/13 12:02:28;;;;;;;10.25;8.00;;;10.90;87.50;;;;;;5034923;28;20434;-68
2022/11/13 12:05:03;;;;;;;12.55;8.93;;;11.10;85.70;;;;;;5011446;28;20031;-69
2022/11/13 12:07:57;;;;;;;11.90;9.07;;;11.20;85.70;;;;;;5023599;28;20076;-69
2022/11/13 12:10:44;;;;;;;11.77;9.32;;;10.90;86.10;;;;;;5029277;28;20033;-68
2022/11/13 12:13:31;;;;;;;11.25;8.57;;;10.60;86.40;;;;;;5031087;28;20083;-68
2022/11/13 12:16:26;;;;;;;11.60;8.25;;;10.30;89.50;;;;;;5017395;28;20039;-69
2022/11/13 12:19:15;;;;;;;12.15;8.57;;;10.30;90.60;;;;;;5015742;28;20048;-69
2022/11/13 12:22:10;;;;;;;15.50;10.63;;;10.30;90.80;;;;;;5027350;28;20056;-69
2022/11/13 12:24:50;;;;;;;13.40;10.18;;;10.10;90.80;;;;;;5034579;28;20025;-68
2022/11/13 12:27:34;;;;;;;13.18;10.00;;;10.30;90.00;;;;;;5015305;28;20049;-68
2022/11/13 12:30:03;;;;;;;16.70;10.48;;;10.10;90.80;;;;;;5031815;28;20108;-68
2022/11/13 12:32:40;;;;;;;14.18;10.35;;;10.00;90.50;;;;;;5027769;28;20172;-69
2022/11/13 12:35:26;;;;;;;12.80;9.82;;;10.10;91.40;;;;;;5027514;28;20103;-69
2022/11/13 12:38:01;;;;;;;14.88;10.15;;;10.20;91.40;;;;;;5044795;28;20036;-69
2022/11/13 12:40:29;;;;;;;15.52;9.82;;;10.40;91.30;;;;;;5035318;28;20078;-69
2022/11/13 12:43:16;;;;;;;14.20;10.13;;;10.60;90.30;;;;;;5030841;28;20021;-69
2022/11/13 12:46:07;;;;;;;15.80;11.15;;;10.70;89.00;;;;;;5033621;28;20030;-69
2022/11/13 12:48:44;;;;;;;14.00;10.50;;;10.60;88.40;;;;;;5016275;28;20052;-69
2022/11/13 12:51:15;;;;;;;14.00;9.55;;;10.10;89.20;;;;;;5014248;28;20101;-69
2022/11/13 12:53:53;;;;;;;12.88;10.15;;;9.80;91.60;;;;;;5023903;28;20029;-69